EZY517E EGGW-EGPF
Flight info
| Callsign | EZY517E |
|---|---|
| Flight time | N/A |
| Altitude | 32000 |
| Route | OLNEY T420 TNT UN57 POL UN601 RIBEL DCT ASLIB |
| Aircraft | A20N/M-SDE2E3FGHIRWXY/LB1 |
Departure
| Time | 2026-05-04 15:47 |
|---|---|
| Airport | London Luton Airport (EGGW) |
Arrival
| Time | N/A |
|---|---|
| Airport | Glasgow Airport (EGPF) |
| Time | Latitude | Longitude | Altitude | Speed | Heading |
|---|---|---|---|---|---|
| 2026-05-04 15:04 | 51.88081 | -0.37744 | 523 ft | 0 kts | 128° |
| 2026-05-04 15:34 | 51.88083 | -0.37750 | 523 ft | 2 kts | 128° |
| 2026-05-04 15:34 | 51.88095 | -0.37774 | 523 ft | 3 kts | 128° |
| 2026-05-04 15:34 | 51.88122 | -0.37796 | 523 ft | 3 kts | 218° |
| 2026-05-04 15:35 | 51.88138 | -0.37770 | 523 ft | 0 kts | 231° |
| 2026-05-04 15:40 | 51.88137 | -0.37771 | 523 ft | 1 kts | 231° |
| 2026-05-04 15:40 | 51.88126 | -0.37792 | 523 ft | 4 kts | 226° |
| 2026-05-04 15:40 | 51.88101 | -0.37829 | 523 ft | 6 kts | 220° |
| 2026-05-04 15:41 | 51.88056 | -0.37886 | 523 ft | 10 kts | 218° |
| 2026-05-04 15:41 | 51.87993 | -0.37966 | 523 ft | 13 kts | 217° |
| 2026-05-04 15:41 | 51.87907 | -0.38015 | 523 ft | 13 kts | 180° |
| 2026-05-04 15:41 | 51.87821 | -0.37957 | 523 ft | 12 kts | 136° |
| 2026-05-04 15:42 | 51.87774 | -0.37824 | 523 ft | 15 kts | 115° |
| 2026-05-04 15:42 | 51.87724 | -0.37655 | 519 ft | 20 kts | 115° |
| 2026-05-04 15:42 | 51.87664 | -0.37496 | 521 ft | 14 kts | 141° |
| 2026-05-04 15:42 | 51.87565 | -0.37461 | 522 ft | 16 kts | 189° |
| 2026-05-04 15:43 | 51.87497 | -0.37574 | 522 ft | 14 kts | 255° |
| 2026-05-04 15:43 | 51.87468 | -0.37741 | 523 ft | 17 kts | 255° |
| 2026-05-04 15:43 | 51.87435 | -0.37934 | 523 ft | 14 kts | 255° |
| 2026-05-04 15:43 | 51.87386 | -0.38051 | 523 ft | 11 kts | 212° |
| 2026-05-04 15:44 | 51.87353 | -0.38078 | 522 ft | 0 kts | 207° |
| 2026-05-04 15:44 | 51.87353 | -0.38079 | 522 ft | 1 kts | 207° |
| 2026-05-04 15:45 | 51.87334 | -0.38094 | 522 ft | 5 kts | 207° |
| 2026-05-04 15:45 | 51.87287 | -0.38114 | 522 ft | 8 kts | 181° |
| 2026-05-04 15:45 | 51.87251 | -0.38090 | 523 ft | 5 kts | 128° |
| 2026-05-04 15:45 | 51.87255 | -0.38023 | 523 ft | 7 kts | 65° |
| 2026-05-04 15:46 | 51.87267 | -0.37975 | 523 ft | 0 kts | 75° |
| 2026-05-04 15:46 | 51.87280 | -0.37901 | 524 ft | 32 kts | 73° |
| 2026-05-04 15:46 | 51.87411 | -0.37152 | 521 ft | 102 kts | 74° |
| 2026-05-04 15:46 | 51.87646 | -0.35742 | 570 ft | 149 kts | 72° |
| 2026-05-04 15:47 | 51.87915 | -0.34160 | 1314 ft | 144 kts | 72° |
| 2026-05-04 15:47 | 51.88165 | -0.32550 | 1994 ft | 149 kts | 73° |
| 2026-05-04 15:47 | 51.88396 | -0.30850 | 2468 ft | 169 kts | 75° |
| 2026-05-04 15:47 | 51.88690 | -0.28857 | 2796 ft | 194 kts | 71° |
| 2026-05-04 15:48 | 51.89271 | -0.26748 | 3218 ft | 219 kts | 49° |
| 2026-05-04 15:48 | 51.90537 | -0.25280 | 3720 ft | 241 kts | 18° |
| 2026-05-04 15:48 | 51.93908 | -0.26269 | 5128 ft | 266 kts | 319° |
| 2026-05-04 15:49 | 51.95047 | -0.28621 | 5713 ft | 272 kts | 292° |
| 2026-05-04 15:49 | 51.95433 | -0.31644 | 5935 ft | 277 kts | 266° |
| 2026-05-04 15:49 | 51.94939 | -0.34615 | 5998 ft | 272 kts | 241° |
| 2026-05-04 15:49 | 51.94009 | -0.37224 | 5994 ft | 263 kts | 248° |
| 2026-05-04 15:50 | 51.93744 | -0.40113 | 5968 ft | 263 kts | 275° |
| 2026-05-04 15:50 | 51.94369 | -0.42900 | 6170 ft | 270 kts | 304° |
| 2026-05-04 15:50 | 51.95725 | -0.45052 | 6933 ft | 275 kts | 318° |
| 2026-05-04 15:50 | 51.97181 | -0.47033 | 8048 ft | 273 kts | 318° |
| 2026-05-04 15:51 | 51.98640 | -0.49039 | 9008 ft | 277 kts | 317° |
| 2026-05-04 15:51 | 52.00117 | -0.51077 | 9986 ft | 280 kts | 317° |
| 2026-05-04 15:51 | 52.01634 | -0.53176 | 10597 ft | 297 kts | 317° |
| 2026-05-04 15:51 | 52.03269 | -0.55438 | 10914 ft | 320 kts | 317° |
| 2026-05-04 15:52 | 52.05014 | -0.57850 | 11375 ft | 336 kts | 318° |
| 2026-05-04 15:52 | 52.06813 | -0.60334 | 12166 ft | 342 kts | 318° |
| 2026-05-04 15:52 | 52.08639 | -0.62856 | 12963 ft | 347 kts | 317° |
| 2026-05-04 15:52 | 52.10492 | -0.65420 | 13735 ft | 353 kts | 317° |
| 2026-05-04 15:53 | 52.12372 | -0.68024 | 14462 ft | 357 kts | 317° |
| 2026-05-04 15:53 | 52.14274 | -0.70661 | 15172 ft | 362 kts | 317° |
| 2026-05-04 15:53 | 52.16203 | -0.73341 | 15870 ft | 366 kts | 318° |
| 2026-05-04 15:53 | 52.18153 | -0.76053 | 16565 ft | 371 kts | 318° |
| 2026-05-04 15:54 | 52.20125 | -0.78799 | 17255 ft | 375 kts | 318° |
| 2026-05-04 15:54 | 52.22119 | -0.81582 | 17944 ft | 380 kts | 318° |
| 2026-05-04 15:54 | 52.24144 | -0.84387 | 18589 ft | 384 kts | 320° |
| 2026-05-04 15:54 | 52.26358 | -0.86867 | 19231 ft | 388 kts | 328° |
| 2026-05-04 15:55 | 52.28676 | -0.89142 | 19861 ft | 391 kts | 327° |
| 2026-05-04 15:55 | 52.31012 | -0.91459 | 20485 ft | 394 kts | 327° |
| 2026-05-04 15:55 | 52.33355 | -0.93793 | 21090 ft | 397 kts | 327° |
| 2026-05-04 15:55 | 52.35720 | -0.96154 | 21698 ft | 400 kts | 327° |
| 2026-05-04 15:56 | 52.38109 | -0.98541 | 22284 ft | 404 kts | 327° |
| 2026-05-04 15:56 | 52.40552 | -1.00983 | 22878 ft | 407 kts | 327° |
| 2026-05-04 15:56 | 52.42981 | -1.03414 | 23457 ft | 411 kts | 327° |
| 2026-05-04 15:56 | 52.45429 | -1.05866 | 23954 ft | 414 kts | 327° |
| 2026-05-04 15:57 | 52.47894 | -1.08340 | 24450 ft | 417 kts | 327° |
| 2026-05-04 15:57 | 52.50373 | -1.10829 | 24911 ft | 420 kts | 327° |
| 2026-05-04 15:57 | 52.52875 | -1.13347 | 25383 ft | 422 kts | 327° |
| 2026-05-04 15:57 | 52.55385 | -1.15875 | 25833 ft | 425 kts | 327° |
| 2026-05-04 15:58 | 52.57915 | -1.18427 | 26281 ft | 428 kts | 327° |
| 2026-05-04 15:58 | 52.60463 | -1.20999 | 26719 ft | 431 kts | 327° |
| 2026-05-04 15:58 | 52.63023 | -1.23586 | 27151 ft | 433 kts | 327° |
| 2026-05-04 15:58 | 52.65601 | -1.26196 | 27558 ft | 436 kts | 327° |
| 2026-05-04 15:59 | 52.68196 | -1.28826 | 27955 ft | 439 kts | 328° |
| 2026-05-04 15:59 | 52.70800 | -1.31471 | 28362 ft | 442 kts | 328° |
| 2026-05-04 15:59 | 52.73423 | -1.34140 | 28768 ft | 444 kts | 328° |
| 2026-05-04 15:59 | 52.76055 | -1.36823 | 29142 ft | 446 kts | 328° |
| 2026-05-04 16:00 | 52.78704 | -1.39528 | 29546 ft | 448 kts | 329° |
| 2026-05-04 16:00 | 52.81361 | -1.42247 | 29902 ft | 450 kts | 329° |
| 2026-05-04 16:00 | 52.84027 | -1.44977 | 30241 ft | 453 kts | 329° |
| 2026-05-04 16:00 | 52.86714 | -1.47734 | 30544 ft | 455 kts | 329° |
| 2026-05-04 16:01 | 52.89409 | -1.50503 | 30859 ft | 457 kts | 329° |
| 2026-05-04 16:01 | 52.92115 | -1.53287 | 31173 ft | 459 kts | 330° |
| 2026-05-04 16:01 | 52.94788 | -1.56040 | 31560 ft | 459 kts | 330° |
| 2026-05-04 16:01 | 52.97500 | -1.58838 | 31917 ft | 458 kts | 330° |
| 2026-05-04 16:02 | 53.00238 | -1.61666 | 32039 ft | 456 kts | 330° |
| 2026-05-04 16:02 | 53.02888 | -1.64408 | 32063 ft | 455 kts | 330° |
| 2026-05-04 16:02 | 53.08554 | -1.68948 | 32063 ft | 450 kts | 343° |
| 2026-05-04 16:03 | 53.11487 | -1.70736 | 32058 ft | 449 kts | 342° |
| 2026-05-04 16:03 | 53.17202 | -1.74298 | 32054 ft | 449 kts | 342° |
| 2026-05-04 16:04 | 53.23047 | -1.77948 | 32057 ft | 449 kts | 342° |
| 2026-05-04 16:04 | 53.31819 | -1.83426 | 32065 ft | 448 kts | 342° |
| 2026-05-04 16:05 | 53.37666 | -1.87088 | 32054 ft | 449 kts | 342° |
| 2026-05-04 16:06 | 53.46435 | -1.92601 | 32062 ft | 449 kts | 342° |
| 2026-05-04 16:07 | 53.58132 | -1.99988 | 32057 ft | 449 kts | 342° |
| 2026-05-04 16:08 | 53.69501 | -2.07212 | 32056 ft | 449 kts | 341° |
| 2026-05-04 16:09 | 53.83998 | -2.16846 | 32051 ft | 449 kts | 340° |
| 2026-05-04 16:10 | 53.95580 | -2.24806 | 32047 ft | 449 kts | 340° |
| 2026-05-04 16:11 | 54.06864 | -2.33891 | 32047 ft | 450 kts | 333° |
| 2026-05-04 16:12 | 54.23273 | -2.49278 | 32043 ft | 447 kts | 332° |
| 2026-05-04 16:13 | 54.34126 | -2.59555 | 32035 ft | 445 kts | 332° |
| 2026-05-04 16:14 | 54.44896 | -2.69816 | 32029 ft | 443 kts | 332° |
| 2026-05-04 16:16 | 54.58382 | -2.82752 | 31990 ft | 442 kts | 331° |